Queen Alia, Jordan

1:23 PM EEST on August 03, 2015 (GMT +0300)
Queen Alia International | | Change Station
CLOSE
Current Station
Airport
Location: Queen Alia,
Elevation: 2369 ft
Nearby Weather Stations

Elev 2369 ft 31.72 °N, 35.99 °E | Updated 23 minutes ago

Haze
Haze
108 °F
Feels Like 108 °F
N
12
Wind Variable Wind from WSW

Today
High -- | Low -- °F
--% Chance of Precip.
Yesterday
High -- | Low -- °F
Precip. -- in
5:52 AM 7:31 PM
Waning Gibbous, 88% visible
Pressure 29.89 in
Visibility 2.5 miles
Clouds
Dew Point 46 °F
Humidity 13%
Rainfall 0.00 in
Snow Depth Not available.
UV Not available.
Pollen Not available.
Air Quality Not available.
Flu Activity Not available.
METAR OJAI 031000Z 25010KT 4000 HZ NSC 42/08 Q1012 NOSIG

More Conditions Fewer Conditions

Pressure 29.89 in
Visibility 2.5 miles
Clouds
Dew Point 46 °F
Humidity 13%
Rainfall 0.00 in
Snow Depth Not available.
UV Not available.
Pollen Not available.
Air Quality Not available.
Flu Activity Not available.
METAR OJAI 031000Z 25010KT 4000 HZ NSC 42/08 Q1012 NOSIG

More Conditions Fewer Conditions

10-Day Weather Forecast

×

Almanac

Astronomy

Aug. 03, 2015 Rise Set
Actual Time
Civil Twilight
Nautical Twilight
Astronomical Twilight
Moon
Length of Visible Light
Length of Day
Tomorrow will be .
, % of the Moon is Illuminated

Today's Extremes

Country Highs Country Lows

Community

WunderPhotos

Upload Photos

1,843,610 photos uploaded!

WunderBlogs® & News

Nearby

Air Quality

  Air Quality AQ Index Pollutant
Not available.

Snow Depth

Station Depth Elevation

Earthquake Activity

City Distance Mag. Time & Date
Minimum magnitude displayed is 2.5.

Coastal Water Temperatures

Place Temperature

Stations

Nearby Weather Stations

Station Location Temp. Windchill Dew Point Humidity Wind Precip. Elev Updated Type